sensor_id;sensor_type;location;lat;lon;timestamp;P1;durP1;ratioP1;P2;durP2;ratioP2
20749;SDS011;10535;50.664;4.564;2023-06-05T00:02:06;1.53;;;1.30;;
20749;SDS011;10535;50.664;4.564;2023-06-05T00:04:32;4.13;;;2.03;;
20749;SDS011;10535;50.664;4.564;2023-06-05T00:07:01;4.33;;;2.27;;
20749;SDS011;10535;50.664;4.564;2023-06-05T00:09:27;4.17;;;1.73;;
20749;SDS011;10535;50.664;4.564;2023-06-05T00:11:52;8.70;;;2.63;;
20749;SDS011;10535;50.664;4.564;2023-06-05T00:14:18;8.87;;;2.60;;
20749;SDS011;10535;50.664;4.564;2023-06-05T00:16:44;2.30;;;1.90;;
20749;SDS011;10535;50.664;4.564;2023-06-05T00:19:09;3.80;;;2.40;;
20749;SDS011;10535;50.664;4.564;2023-06-05T00:21:35;5.43;;;1.57;;
20749;SDS011;10535;50.664;4.564;2023-06-05T00:24:01;2.20;;;1.83;;
20749;SDS011;10535;50.664;4.564;2023-06-05T00:26:26;2.50;;;1.73;;
20749;SDS011;10535;50.664;4.564;2023-06-05T00:28:52;5.07;;;1.77;;
20749;SDS011;10535;50.664;4.564;2023-06-05T00:31:18;2.97;;;1.50;;
20749;SDS011;10535;50.664;4.564;2023-06-05T00:33:44;3.07;;;1.90;;
20749;SDS011;10535;50.664;4.564;2023-06-05T00:36:09;2.10;;;1.60;;
20749;SDS011;10535;50.664;4.564;2023-06-05T00:38:36;6.87;;;1.90;;
20749;SDS011;10535;50.664;4.564;2023-06-05T00:41:02;1.70;;;1.43;;
20749;SDS011;10535;50.664;4.564;2023-06-05T00:43:27;2.03;;;1.50;;
20749;SDS011;10535;50.664;4.564;2023-06-05T00:45:55;3.13;;;1.63;;
20749;SDS011;10535;50.664;4.564;2023-06-05T00:48:24;11.03;;;1.67;;
20749;SDS011;10535;50.664;4.564;2023-06-05T00:50:50;4.10;;;2.10;;
20749;SDS011;10535;50.664;4.564;2023-06-05T00:53:16;2.97;;;1.70;;
20749;SDS011;10535;50.664;4.564;2023-06-05T00:55:42;4.60;;;1.77;;
20749;SDS011;10535;50.664;4.564;2023-06-05T00:58:07;5.40;;;1.90;;
20749;SDS011;10535;50.664;4.564;2023-06-05T01:00:34;2.53;;;2.03;;
20749;SDS011;10535;50.664;4.564;2023-06-05T01:03:01;5.13;;;2.23;;
20749;SDS011;10535;50.664;4.564;2023-06-05T01:05:27;2.50;;;1.73;;
20749;SDS011;10535;50.664;4.564;2023-06-05T01:07:54;4.83;;;1.60;;
20749;SDS011;10535;50.664;4.564;2023-06-05T01:10:19;6.63;;;1.57;;
20749;SDS011;10535;50.664;4.564;2023-06-05T01:15:35;4.77;;;2.03;;
20749;SDS011;10535;50.664;4.564;2023-06-05T01:18:02;2.17;;;1.87;;
20749;SDS011;10535;50.664;4.564;2023-06-05T01:20:37;3.63;;;2.03;;
20749;SDS011;10535;50.664;4.564;2023-06-05T01:23:04;6.10;;;2.43;;
20749;SDS011;10535;50.664;4.564;2023-06-05T01:25:33;2.97;;;1.90;;
20749;SDS011;10535;50.664;4.564;2023-06-05T01:30:34;4.50;;;2.30;;
20749;SDS011;10535;50.664;4.564;2023-06-05T01:33:13;2.57;;;1.67;;
20749;SDS011;10535;50.664;4.564;2023-06-05T01:35:45;2.10;;;1.40;;
20749;SDS011;10535;50.664;4.564;2023-06-05T01:38:16;4.47;;;2.30;;
20749;SDS011;10535;50.664;4.564;2023-06-05T01:40:43;2.23;;;2.00;;
20749;SDS011;10535;50.664;4.564;2023-06-05T01:43:12;1.83;;;1.50;;
20749;SDS011;10535;50.664;4.564;2023-06-05T01:45:38;2.97;;;1.80;;
20749;SDS011;10535;50.664;4.564;2023-06-05T01:48:08;3.77;;;2.53;;
20749;SDS011;10535;50.664;4.564;2023-06-05T01:50:37;4.77;;;2.00;;
20749;SDS011;10535;50.664;4.564;2023-06-05T01:53:03;3.83;;;2.77;;
20749;SDS011;10535;50.664;4.564;2023-06-05T01:55:30;4.73;;;2.10;;
20749;SDS011;10535;50.664;4.564;2023-06-05T01:57:56;6.47;;;2.63;;
20749;SDS011;10535;50.664;4.564;2023-06-05T02:00:21;4.00;;;1.90;;
20749;SDS011;10535;50.664;4.564;2023-06-05T02:02:47;5.00;;;2.23;;
20749;SDS011;10535;50.664;4.564;2023-06-05T02:05:14;3.17;;;2.17;;
20749;SDS011;10535;50.664;4.564;2023-06-05T02:07:44;5.87;;;2.10;;
20749;SDS011;10535;50.664;4.564;2023-06-05T02:10:14;5.00;;;2.20;;
20749;SDS011;10535;50.664;4.564;2023-06-05T02:12:40;6.40;;;2.17;;
20749;SDS011;10535;50.664;4.564;2023-06-05T02:15:09;4.33;;;2.63;;
20749;SDS011;10535;50.664;4.564;2023-06-05T02:17:38;2.47;;;1.90;;
20749;SDS011;10535;50.664;4.564;2023-06-05T02:20:04;2.60;;;1.83;;
20749;SDS011;10535;50.664;4.564;2023-06-05T02:22:30;6.10;;;2.33;;
20749;SDS011;10535;50.664;4.564;2023-06-05T02:24:56;2.17;;;1.97;;
20749;SDS011;10535;50.664;4.564;2023-06-05T02:27:21;7.60;;;2.03;;
20749;SDS011;10535;50.664;4.564;2023-06-05T02:29:49;2.23;;;1.97;;
20749;SDS011;10535;50.664;4.564;2023-06-05T02:32:15;3.47;;;1.80;;
20749;SDS011;10535;50.664;4.564;2023-06-05T02:34:41;6.10;;;2.17;;
20749;SDS011;10535;50.664;4.564;2023-06-05T02:37:06;5.80;;;1.90;;
20749;SDS011;10535;50.664;4.564;2023-06-05T02:39:33;6.20;;;2.60;;
20749;SDS011;10535;50.664;4.564;2023-06-05T02:41:59;8.07;;;2.37;;
20749;SDS011;10535;50.664;4.564;2023-06-05T02:44:24;4.43;;;2.27;;
20749;SDS011;10535;50.664;4.564;2023-06-05T02:46:51;5.27;;;2.77;;
20749;SDS011;10535;50.664;4.564;2023-06-05T02:49:16;2.80;;;2.00;;
20749;SDS011;10535;50.664;4.564;2023-06-05T02:51:42;3.43;;;1.93;;
20749;SDS011;10535;50.664;4.564;2023-06-05T02:54:07;3.53;;;2.10;;
20749;SDS011;10535;50.664;4.564;2023-06-05T02:56:33;5.17;;;2.73;;
20749;SDS011;10535;50.664;4.564;2023-06-05T02:58:59;5.17;;;2.17;;
20749;SDS011;10535;50.664;4.564;2023-06-05T03:01:27;4.90;;;2.70;;
20749;SDS011;10535;50.664;4.564;2023-06-05T03:03:59;2.80;;;2.10;;
20749;SDS011;10535;50.664;4.564;2023-06-05T03:06:27;3.17;;;2.23;;
20749;SDS011;10535;50.664;4.564;2023-06-05T03:09:00;2.87;;;1.97;;
20749;SDS011;10535;50.664;4.564;2023-06-05T03:11:26;4.20;;;2.13;;
20749;SDS011;10535;50.664;4.564;2023-06-05T03:13:51;5.23;;;2.57;;
20749;SDS011;10535;50.664;4.564;2023-06-05T03:16:17;5.47;;;2.90;;
20749;SDS011;10535;50.664;4.564;2023-06-05T03:18:43;7.37;;;2.77;;
20749;SDS011;10535;50.664;4.564;2023-06-05T03:21:10;3.43;;;2.37;;
20749;SDS011;10535;50.664;4.564;2023-06-05T03:23:36;7.73;;;2.70;;
20749;SDS011;10535;50.664;4.564;2023-06-05T03:26:02;3.07;;;2.33;;
20749;SDS011;10535;50.664;4.564;2023-06-05T03:28:28;3.70;;;2.27;;
20749;SDS011;10535;50.664;4.564;2023-06-05T03:30:58;6.83;;;2.73;;
20749;SDS011;10535;50.664;4.564;2023-06-05T03:33:24;8.23;;;2.70;;
20749;SDS011;10535;50.664;4.564;2023-06-05T03:35:49;3.67;;;2.07;;
20749;SDS011;10535;50.664;4.564;2023-06-05T03:38:15;5.20;;;2.10;;
20749;SDS011;10535;50.664;4.564;2023-06-05T03:40:41;4.50;;;2.63;;
20749;SDS011;10535;50.664;4.564;2023-06-05T03:43:07;4.33;;;2.80;;
20749;SDS011;10535;50.664;4.564;2023-06-05T03:45:36;3.33;;;2.30;;
20749;SDS011;10535;50.664;4.564;2023-06-05T03:48:04;4.23;;;2.73;;
20749;SDS011;10535;50.664;4.564;2023-06-05T03:50:30;4.47;;;2.20;;
20749;SDS011;10535;50.664;4.564;2023-06-05T03:52:57;4.30;;;2.60;;
20749;SDS011;10535;50.664;4.564;2023-06-05T03:55:31;4.27;;;2.63;;
20749;SDS011;10535;50.664;4.564;2023-06-05T03:58:13;4.30;;;2.40;;
20749;SDS011;10535;50.664;4.564;2023-06-05T04:00:40;3.10;;;2.13;;
20749;SDS011;10535;50.664;4.564;2023-06-05T04:03:10;3.07;;;2.43;;
20749;SDS011;10535;50.664;4.564;2023-06-05T04:05:36;4.83;;;3.10;;
20749;SDS011;10535;50.664;4.564;2023-06-05T04:08:03;3.63;;;2.53;;
20749;SDS011;10535;50.664;4.564;2023-06-05T04:10:29;7.87;;;3.07;;
20749;SDS011;10535;50.664;4.564;2023-06-05T04:12:55;2.73;;;2.20;;
20749;SDS011;10535;50.664;4.564;2023-06-05T04:15:22;6.67;;;3.07;;
20749;SDS011;10535;50.664;4.564;2023-06-05T04:17:48;5.53;;;2.83;;
20749;SDS011;10535;50.664;4.564;2023-06-05T04:20:14;4.50;;;3.13;;
20749;SDS011;10535;50.664;4.564;2023-06-05T04:22:40;4.13;;;3.00;;
20749;SDS011;10535;50.664;4.564;2023-06-05T04:25:06;4.53;;;2.40;;
20749;SDS011;10535;50.664;4.564;2023-06-05T04:27:33;7.20;;;2.90;;
20749;SDS011;10535;50.664;4.564;2023-06-05T04:29:58;4.80;;;3.07;;
20749;SDS011;10535;50.664;4.564;2023-06-05T04:32:24;4.50;;;3.37;;
20749;SDS011;10535;50.664;4.564;2023-06-05T04:34:50;5.00;;;2.63;;
20749;SDS011;10535;50.664;4.564;2023-06-05T04:37:17;4.37;;;2.97;;
20749;SDS011;10535;50.664;4.564;2023-06-05T04:39:43;7.47;;;3.27;;
20749;SDS011;10535;50.664;4.564;2023-06-05T04:42:08;3.57;;;2.53;;
20749;SDS011;10535;50.664;4.564;2023-06-05T04:44:35;4.27;;;2.67;;
20749;SDS011;10535;50.664;4.564;2023-06-05T04:47:02;5.73;;;2.63;;
20749;SDS011;10535;50.664;4.564;2023-06-05T04:49:31;6.67;;;3.00;;
20749;SDS011;10535;50.664;4.564;2023-06-05T04:51:56;4.43;;;3.17;;
20749;SDS011;10535;50.664;4.564;2023-06-05T04:54:24;7.37;;;3.07;;
20749;SDS011;10535;50.664;4.564;2023-06-05T04:56:50;10.23;;;3.03;;
20749;SDS011;10535;50.664;4.564;2023-06-05T04:59:16;6.23;;;3.10;;
20749;SDS011;10535;50.664;4.564;2023-06-05T05:01:41;7.07;;;3.27;;
20749;SDS011;10535;50.664;4.564;2023-06-05T05:04:08;4.33;;;2.63;;
20749;SDS011;10535;50.664;4.564;2023-06-05T05:06:34;4.23;;;2.80;;
20749;SDS011;10535;50.664;4.564;2023-06-05T05:09:00;8.30;;;3.47;;
20749;SDS011;10535;50.664;4.564;2023-06-05T05:11:26;3.33;;;2.33;;
20749;SDS011;10535;50.664;4.564;2023-06-05T05:13:51;5.97;;;2.80;;
20749;SDS011;10535;50.664;4.564;2023-06-05T05:16:17;2.97;;;2.10;;
20749;SDS011;10535;50.664;4.564;2023-06-05T05:18:43;3.10;;;2.60;;
20749;SDS011;10535;50.664;4.564;2023-06-05T05:21:10;5.17;;;2.73;;
20749;SDS011;10535;50.664;4.564;2023-06-05T05:23:36;5.67;;;2.60;;
20749;SDS011;10535;50.664;4.564;2023-06-05T05:26:01;3.87;;;2.70;;
20749;SDS011;10535;50.664;4.564;2023-06-05T05:28:29;6.67;;;2.97;;
20749;SDS011;10535;50.664;4.564;2023-06-05T05:30:54;9.37;;;3.23;;
20749;SDS011;10535;50.664;4.564;2023-06-05T05:33:23;4.13;;;3.00;;
20749;SDS011;10535;50.664;4.564;2023-06-05T05:35:49;7.10;;;2.87;;
20749;SDS011;10535;50.664;4.564;2023-06-05T05:38:15;4.50;;;3.17;;
20749;SDS011;10535;50.664;4.564;2023-06-05T05:40:41;3.60;;;2.47;;
20749;SDS011;10535;50.664;4.564;2023-06-05T05:43:06;4.67;;;3.10;;
20749;SDS011;10535;50.664;4.564;2023-06-05T05:45:33;6.53;;;3.57;;
20749;SDS011;10535;50.664;4.564;2023-06-05T05:47:59;4.70;;;2.67;;
20749;SDS011;10535;50.664;4.564;2023-06-05T05:50:26;4.40;;;2.90;;
20749;SDS011;10535;50.664;4.564;2023-06-05T05:52:51;6.10;;;3.40;;
20749;SDS011;10535;50.664;4.564;2023-06-05T05:55:18;3.53;;;2.90;;
20749;SDS011;10535;50.664;4.564;2023-06-05T05:57:43;4.83;;;2.90;;
20749;SDS011;10535;50.664;4.564;2023-06-05T06:00:09;5.83;;;3.53;;
20749;SDS011;10535;50.664;4.564;2023-06-05T06:02:40;4.77;;;2.67;;
20749;SDS011;10535;50.664;4.564;2023-06-05T06:05:07;4.60;;;2.63;;
20749;SDS011;10535;50.664;4.564;2023-06-05T06:07:33;3.47;;;2.43;;
20749;SDS011;10535;50.664;4.564;2023-06-05T06:10:00;4.47;;;3.07;;
20749;SDS011;10535;50.664;4.564;2023-06-05T06:12:26;6.53;;;3.40;;
20749;SDS011;10535;50.664;4.564;2023-06-05T06:14:53;6.07;;;2.97;;
20749;SDS011;10535;50.664;4.564;2023-06-05T06:17:19;5.57;;;3.50;;
20749;SDS011;10535;50.664;4.564;2023-06-05T06:19:45;6.00;;;2.97;;
20749;SDS011;10535;50.664;4.564;2023-06-05T06:22:13;5.43;;;3.10;;
20749;SDS011;10535;50.664;4.564;2023-06-05T06:24:40;7.70;;;3.73;;
20749;SDS011;10535;50.664;4.564;2023-06-05T06:27:06;7.43;;;3.30;;
20749;SDS011;10535;50.664;4.564;2023-06-05T06:29:34;5.57;;;3.00;;
20749;SDS011;10535;50.664;4.564;2023-06-05T06:31:59;5.67;;;3.00;;
20749;SDS011;10535;50.664;4.564;2023-06-05T06:34:25;6.67;;;3.27;;
20749;SDS011;10535;50.664;4.564;2023-06-05T06:36:51;8.97;;;3.17;;
20749;SDS011;10535;50.664;4.564;2023-06-05T06:39:17;5.73;;;3.10;;
20749;SDS011;10535;50.664;4.564;2023-06-05T06:41:43;10.77;;;3.23;;
20749;SDS011;10535;50.664;4.564;2023-06-05T06:44:09;8.63;;;3.60;;
20749;SDS011;10535;50.664;4.564;2023-06-05T06:46:35;5.97;;;3.40;;
20749;SDS011;10535;50.664;4.564;2023-06-05T06:49:01;5.23;;;3.07;;
20749;SDS011;10535;50.664;4.564;2023-06-05T06:51:27;6.47;;;3.63;;
20749;SDS011;10535;50.664;4.564;2023-06-05T06:53:53;3.87;;;2.87;;
20749;SDS011;10535;50.664;4.564;2023-06-05T06:56:18;7.20;;;3.20;;
20749;SDS011;10535;50.664;4.564;2023-06-05T06:58:48;4.60;;;3.20;;
20749;SDS011;10535;50.664;4.564;2023-06-05T07:01:18;5.10;;;2.70;;
20749;SDS011;10535;50.664;4.564;2023-06-05T07:03:45;5.57;;;3.57;;
20749;SDS011;10535;50.664;4.564;2023-06-05T07:06:11;10.10;;;4.07;;
20749;SDS011;10535;50.664;4.564;2023-06-05T07:08:38;4.93;;;2.97;;
20749;SDS011;10535;50.664;4.564;2023-06-05T07:11:04;5.40;;;3.00;;
20749;SDS011;10535;50.664;4.564;2023-06-05T07:13:29;4.57;;;2.73;;
20749;SDS011;10535;50.664;4.564;2023-06-05T07:15:55;6.23;;;3.20;;
20749;SDS011;10535;50.664;4.564;2023-06-05T07:18:21;6.73;;;3.07;;
20749;SDS011;10535;50.664;4.564;2023-06-05T07:20:46;3.70;;;2.73;;
20749;SDS011;10535;50.664;4.564;2023-06-05T07:23:13;5.50;;;3.40;;
20749;SDS011;10535;50.664;4.564;2023-06-05T07:25:39;6.13;;;3.03;;
20749;SDS011;10535;50.664;4.564;2023-06-05T07:28:07;4.67;;;2.90;;
20749;SDS011;10535;50.664;4.564;2023-06-05T07:30:34;10.57;;;3.80;;
20749;SDS011;10535;50.664;4.564;2023-06-05T07:33:00;5.03;;;3.13;;
20749;SDS011;10535;50.664;4.564;2023-06-05T07:35:25;5.17;;;3.23;;
20749;SDS011;10535;50.664;4.564;2023-06-05T07:37:51;9.40;;;3.27;;
20749;SDS011;10535;50.664;4.564;2023-06-05T07:40:17;5.77;;;3.53;;
20749;SDS011;10535;50.664;4.564;2023-06-05T07:42:44;3.80;;;2.63;;
20749;SDS011;10535;50.664;4.564;2023-06-05T07:45:09;4.30;;;3.03;;
20749;SDS011;10535;50.664;4.564;2023-06-05T07:47:35;6.30;;;3.67;;
20749;SDS011;10535;50.664;4.564;2023-06-05T07:50:01;5.93;;;3.67;;
20749;SDS011;10535;50.664;4.564;2023-06-05T07:52:30;7.93;;;3.93;;
20749;SDS011;10535;50.664;4.564;2023-06-05T07:54:56;11.67;;;3.50;;
20749;SDS011;10535;50.664;4.564;2023-06-05T07:57:22;5.80;;;3.77;;
20749;SDS011;10535;50.664;4.564;2023-06-05T07:59:52;7.90;;;4.17;;
20749;SDS011;10535;50.664;4.564;2023-06-05T08:02:19;13.90;;;4.57;;
20749;SDS011;10535;50.664;4.564;2023-06-05T08:04:44;6.10;;;4.00;;
20749;SDS011;10535;50.664;4.564;2023-06-05T08:07:10;8.63;;;3.70;;
20749;SDS011;10535;50.664;4.564;2023-06-05T08:09:36;5.23;;;3.87;;
20749;SDS011;10535;50.664;4.564;2023-06-05T08:12:05;5.07;;;3.53;;
20749;SDS011;10535;50.664;4.564;2023-06-05T08:14:31;5.23;;;3.40;;
20749;SDS011;10535;50.664;4.564;2023-06-05T08:16:58;7.33;;;3.50;;
20749;SDS011;10535;50.664;4.564;2023-06-05T08:19:23;5.80;;;3.57;;
20749;SDS011;10535;50.664;4.564;2023-06-05T08:21:53;6.10;;;2.87;;
20749;SDS011;10535;50.664;4.564;2023-06-05T08:24:19;8.67;;;3.30;;
20749;SDS011;10535;50.664;4.564;2023-06-05T08:26:45;6.50;;;3.40;;
20749;SDS011;10535;50.664;4.564;2023-06-05T08:29:11;8.47;;;3.83;;
20749;SDS011;10535;50.664;4.564;2023-06-05T08:31:37;4.20;;;3.53;;
20749;SDS011;10535;50.664;4.564;2023-06-05T08:34:03;7.93;;;4.00;;
20749;SDS011;10535;50.664;4.564;2023-06-05T08:36:30;5.33;;;3.47;;
20749;SDS011;10535;50.664;4.564;2023-06-05T08:38:57;8.90;;;4.93;;
20749;SDS011;10535;50.664;4.564;2023-06-05T08:41:23;8.30;;;3.87;;
20749;SDS011;10535;50.664;4.564;2023-06-05T08:43:50;7.13;;;3.97;;
20749;SDS011;10535;50.664;4.564;2023-06-05T08:46:20;8.53;;;4.10;;
20749;SDS011;10535;50.664;4.564;2023-06-05T08:48:47;4.70;;;3.23;;
20749;SDS011;10535;50.664;4.564;2023-06-05T08:51:18;7.50;;;4.13;;
20749;SDS011;10535;50.664;4.564;2023-06-05T08:53:50;9.13;;;3.63;;
20749;SDS011;10535;50.664;4.564;2023-06-05T08:56:20;11.63;;;4.13;;
20749;SDS011;10535;50.664;4.564;2023-06-05T08:58:46;24.17;;;5.60;;
20749;SDS011;10535;50.664;4.564;2023-06-05T09:01:13;10.53;;;4.00;;
20749;SDS011;10535;50.664;4.564;2023-06-05T09:03:39;6.73;;;3.57;;
20749;SDS011;10535;50.664;4.564;2023-06-05T09:06:04;7.57;;;3.90;;
20749;SDS011;10535;50.664;4.564;2023-06-05T09:08:33;7.57;;;3.73;;
20749;SDS011;10535;50.664;4.564;2023-06-05T09:13:54;8.47;;;3.83;;
20749;SDS011;10535;50.664;4.564;2023-06-05T09:16:34;6.23;;;3.53;;
20749;SDS011;10535;50.664;4.564;2023-06-05T09:19:04;6.83;;;4.10;;
20749;SDS011;10535;50.664;4.564;2023-06-05T09:21:31;6.77;;;4.50;;
20749;SDS011;10535;50.664;4.564;2023-06-05T09:24:16;8.07;;;3.67;;
20749;SDS011;10535;50.664;4.564;2023-06-05T09:27:05;7.47;;;3.80;;
20749;SDS011;10535;50.664;4.564;2023-06-05T09:29:37;8.30;;;4.03;;
20749;SDS011;10535;50.664;4.564;2023-06-05T09:32:08;7.40;;;4.20;;
20749;SDS011;10535;50.664;4.564;2023-06-05T09:34:35;5.90;;;3.80;;
20749;SDS011;10535;50.664;4.564;2023-06-05T09:37:03;5.80;;;4.13;;
20749;SDS011;10535;50.664;4.564;2023-06-05T09:39:33;6.60;;;3.40;;
20749;SDS011;10535;50.664;4.564;2023-06-05T09:42:00;8.07;;;3.57;;
20749;SDS011;10535;50.664;4.564;2023-06-05T09:44:26;8.27;;;4.27;;
20749;SDS011;10535;50.664;4.564;2023-06-05T09:49:24;5.77;;;3.90;;
20749;SDS011;10535;50.664;4.564;2023-06-05T09:51:51;7.00;;;3.60;;
20749;SDS011;10535;50.664;4.564;2023-06-05T09:54:16;5.63;;;4.00;;
20749;SDS011;10535;50.664;4.564;2023-06-05T09:56:45;7.73;;;4.20;;
20749;SDS011;10535;50.664;4.564;2023-06-05T09:59:21;6.50;;;3.27;;
20749;SDS011;10535;50.664;4.564;2023-06-05T10:01:51;10.43;;;4.47;;
20749;SDS011;10535;50.664;4.564;2023-06-05T10:04:21;9.87;;;4.87;;
20749;SDS011;10535;50.664;4.564;2023-06-05T10:06:49;5.60;;;2.77;;
20749;SDS011;10535;50.664;4.564;2023-06-05T10:09:16;9.83;;;4.63;;
20749;SDS011;10535;50.664;4.564;2023-06-05T10:11:42;5.97;;;3.13;;
20749;SDS011;10535;50.664;4.564;2023-06-05T10:14:08;6.13;;;3.57;;
20749;SDS011;10535;50.664;4.564;2023-06-05T10:16:51;5.97;;;3.20;;
20749;SDS011;10535;50.664;4.564;2023-06-05T10:19:20;7.47;;;3.67;;
20749;SDS011;10535;50.664;4.564;2023-06-05T10:21:53;7.03;;;3.43;;
20749;SDS011;10535;50.664;4.564;2023-06-05T10:27:24;6.70;;;4.00;;
20749;SDS011;10535;50.664;4.564;2023-06-05T10:35:52;6.50;;;3.50;;
20749;SDS011;10535;50.664;4.564;2023-06-05T10:38:34;5.50;;;3.17;;
20749;SDS011;10535;50.664;4.564;2023-06-05T10:41:02;7.10;;;3.20;;
20749;SDS011;10535;50.664;4.564;2023-06-05T10:43:33;4.83;;;2.87;;
20749;SDS011;10535;50.664;4.564;2023-06-05T10:54:04;4.33;;;2.37;;
20749;SDS011;10535;50.664;4.564;2023-06-05T10:59:17;3.37;;;2.40;;
20749;SDS011;10535;50.664;4.564;2023-06-05T11:01:45;5.67;;;2.80;;
20749;SDS011;10535;50.664;4.564;2023-06-05T11:12:26;4.20;;;2.47;;
20749;SDS011;10535;50.664;4.564;2023-06-05T11:14:52;4.47;;;2.53;;
20749;SDS011;10535;50.664;4.564;2023-06-05T11:17:31;3.90;;;2.53;;
20749;SDS011;10535;50.664;4.564;2023-06-05T11:19:58;3.30;;;2.60;;
20749;SDS011;10535;50.664;4.564;2023-06-05T11:22:25;8.60;;;3.00;;
20749;SDS011;10535;50.664;4.564;2023-06-05T11:30:11;4.60;;;2.97;;
20749;SDS011;10535;50.664;4.564;2023-06-05T11:32:41;5.05;;;3.60;;
20749;SDS011;10535;50.664;4.564;2023-06-05T11:35:10;4.43;;;2.60;;
20749;SDS011;10535;50.664;4.564;2023-06-05T11:37:37;6.10;;;2.90;;
20749;SDS011;10535;50.664;4.564;2023-06-05T11:40:04;4.70;;;2.83;;
20749;SDS011;10535;50.664;4.564;2023-06-05T11:42:35;4.67;;;2.63;;
20749;SDS011;10535;50.664;4.564;2023-06-05T11:45:01;4.13;;;2.57;;
20749;SDS011;10535;50.664;4.564;2023-06-05T11:47:27;3.33;;;2.08;;
20749;SDS011;10535;50.664;4.564;2023-06-05T11:50:06;2.17;;;1.70;;
20749;SDS011;10535;50.664;4.564;2023-06-05T11:52:33;2.17;;;1.73;;
20749;SDS011;10535;50.664;4.564;2023-06-05T11:55:10;2.05;;;1.60;;
20749;SDS011;10535;50.664;4.564;2023-06-05T11:57:46;3.03;;;1.80;;
20749;SDS011;10535;50.664;4.564;2023-06-05T12:00:13;3.65;;;2.40;;
20749;SDS011;10535;50.664;4.564;2023-06-05T12:02:43;4.15;;;2.95;;
20749;SDS011;10535;50.664;4.564;2023-06-05T12:05:09;6.88;;;2.00;;
20749;SDS011;10535;50.664;4.564;2023-06-05T12:07:35;4.25;;;1.60;;
20749;SDS011;10535;50.664;4.564;2023-06-05T12:10:05;2.57;;;1.63;;
20749;SDS011;10535;50.664;4.564;2023-06-05T12:12:33;2.45;;;1.50;;
20749;SDS011;10535;50.664;4.564;2023-06-05T12:15:18;2.35;;;1.35;;
20749;SDS011;10535;50.664;4.564;2023-06-05T12:17:52;4.18;;;1.67;;
20749;SDS011;10535;50.664;4.564;2023-06-05T12:20:19;2.92;;;1.60;;
20749;SDS011;10535;50.664;4.564;2023-06-05T12:22:46;1.95;;;1.35;;
20749;SDS011;10535;50.664;4.564;2023-06-05T12:25:19;2.25;;;1.55;;
20749;SDS011;10535;50.664;4.564;2023-06-05T12:27:45;3.13;;;1.73;;
20749;SDS011;10535;50.664;4.564;2023-06-05T12:30:12;2.10;;;1.60;;
20749;SDS011;10535;50.664;4.564;2023-06-05T12:32:38;3.22;;;1.70;;
20749;SDS011;10535;50.664;4.564;2023-06-05T12:35:05;4.15;;;2.03;;
20749;SDS011;10535;50.664;4.564;2023-06-05T12:37:42;2.95;;;1.73;;
20749;SDS011;10535;50.664;4.564;2023-06-05T12:40:10;3.47;;;1.58;;
20749;SDS011;10535;50.664;4.564;2023-06-05T12:42:37;1.42;;;1.30;;
20749;SDS011;10535;50.664;4.564;2023-06-05T12:45:04;5.25;;;2.00;;
20749;SDS011;10535;50.664;4.564;2023-06-05T12:47:34;1.67;;;1.50;;
20749;SDS011;10535;50.664;4.564;2023-06-05T12:50:01;1.85;;;1.50;;
20749;SDS011;10535;50.664;4.564;2023-06-05T12:52:31;2.80;;;1.80;;
20749;SDS011;10535;50.664;4.564;2023-06-05T12:54:57;2.92;;;1.38;;
20749;SDS011;10535;50.664;4.564;2023-06-05T12:57:23;4.88;;;2.22;;
20749;SDS011;10535;50.664;4.564;2023-06-05T12:59:49;2.42;;;1.38;;
20749;SDS011;10535;50.664;4.564;2023-06-05T13:02:18;2.28;;;1.65;;
20749;SDS011;10535;50.664;4.564;2023-06-05T13:04:44;2.53;;;1.63;;
20749;SDS011;10535;50.664;4.564;2023-06-05T13:07:11;1.83;;;1.48;;
20749;SDS011;10535;50.664;4.564;2023-06-05T13:09:37;2.13;;;1.55;;
20749;SDS011;10535;50.664;4.564;2023-06-05T13:12:03;2.65;;;1.98;;
20749;SDS011;10535;50.664;4.564;2023-06-05T13:14:31;3.75;;;1.85;;
20749;SDS011;10535;50.664;4.564;2023-06-05T13:16:58;2.83;;;1.65;;
20749;SDS011;10535;50.664;4.564;2023-06-05T13:19:24;2.20;;;1.42;;
20749;SDS011;10535;50.664;4.564;2023-06-05T13:21:50;2.92;;;1.65;;
20749;SDS011;10535;50.664;4.564;2023-06-05T13:24:17;1.98;;;1.70;;
20749;SDS011;10535;50.664;4.564;2023-06-05T13:26:43;2.70;;;1.77;;
20749;SDS011;10535;50.664;4.564;2023-06-05T13:29:09;2.33;;;1.90;;
20749;SDS011;10535;50.664;4.564;2023-06-05T13:31:35;3.30;;;1.75;;
20749;SDS011;10535;50.664;4.564;2023-06-05T13:34:01;2.20;;;2.00;;
20749;SDS011;10535;50.664;4.564;2023-06-05T13:36:29;1.98;;;1.67;;
20749;SDS011;10535;50.664;4.564;2023-06-05T13:38:54;6.40;;;2.17;;
20749;SDS011;10535;50.664;4.564;2023-06-05T13:41:21;8.60;;;2.08;;
20749;SDS011;10535;50.664;4.564;2023-06-05T13:43:48;5.95;;;2.00;;
20749;SDS011;10535;50.664;4.564;2023-06-05T13:46:14;4.22;;;1.88;;
20749;SDS011;10535;50.664;4.564;2023-06-05T13:48:40;1.83;;;1.70;;
20749;SDS011;10535;50.664;4.564;2023-06-05T13:51:07;4.97;;;1.73;;
20749;SDS011;10535;50.664;4.564;2023-06-05T13:53:32;4.75;;;1.90;;
20749;SDS011;10535;50.664;4.564;2023-06-05T13:56:03;3.40;;;1.98;;
20749;SDS011;10535;50.664;4.564;2023-06-05T13:58:33;2.78;;;1.90;;
20749;SDS011;10535;50.664;4.564;2023-06-05T14:00:59;2.53;;;1.85;;
20749;SDS011;10535;50.664;4.564;2023-06-05T14:03:25;1.23;;;1.10;;
20749;SDS011;10535;50.664;4.564;2023-06-05T14:06:12;3.15;;;1.60;;
20749;SDS011;10535;50.664;4.564;2023-06-05T14:08:38;4.28;;;2.08;;
20749;SDS011;10535;50.664;4.564;2023-06-05T14:11:04;1.95;;;1.75;;
20749;SDS011;10535;50.664;4.564;2023-06-05T14:13:30;2.95;;;1.33;;
20749;SDS011;10535;50.664;4.564;2023-06-05T14:47:10;2.67;;;1.67;;
20749;SDS011;10535;50.664;4.564;2023-06-05T14:49:47;2.22;;;1.42;;
20749;SDS011;10535;50.664;4.564;2023-06-05T14:52:13;2.65;;;1.60;;
20749;SDS011;10535;50.664;4.564;2023-06-05T14:54:38;2.17;;;1.88;;
20749;SDS011;10535;50.664;4.564;2023-06-05T14:57:07;1.90;;;1.17;;
20749;SDS011;10535;50.664;4.564;2023-06-05T14:59:34;4.22;;;2.13;;
20749;SDS011;10535;50.664;4.564;2023-06-05T15:02:06;5.53;;;1.85;;
20749;SDS011;10535;50.664;4.564;2023-06-05T15:04:38;3.55;;;1.67;;
20749;SDS011;10535;50.664;4.564;2023-06-05T15:07:09;4.10;;;1.70;;
20749;SDS011;10535;50.664;4.564;2023-06-05T15:10:08;4.20;;;1.30;;
20749;SDS011;10535;50.664;4.564;2023-06-05T15:13:01;4.55;;;1.88;;
20749;SDS011;10535;50.664;4.564;2023-06-05T15:18:07;2.67;;;1.85;;
20749;SDS011;10535;50.664;4.564;2023-06-05T15:20:40;3.60;;;1.88;;
20749;SDS011;10535;50.664;4.564;2023-06-05T15:23:07;2.60;;;1.50;;
20749;SDS011;10535;50.664;4.564;2023-06-05T15:25:33;3.08;;;2.20;;
20749;SDS011;10535;50.664;4.564;2023-06-05T15:28:00;2.72;;;1.88;;
20749;SDS011;10535;50.664;4.564;2023-06-05T15:30:26;2.60;;;1.20;;
20749;SDS011;10535;50.664;4.564;2023-06-05T15:32:56;3.40;;;1.80;;
20749;SDS011;10535;50.664;4.564;2023-06-05T15:35:28;2.72;;;1.50;;
20749;SDS011;10535;50.664;4.564;2023-06-05T15:38:30;4.32;;;2.28;;
20749;SDS011;10535;50.664;4.564;2023-06-05T15:41:12;2.60;;;1.65;;
20749;SDS011;10535;50.664;4.564;2023-06-05T15:44:16;2.15;;;1.70;;
20749;SDS011;10535;50.664;4.564;2023-06-05T15:47:06;2.63;;;1.50;;
20749;SDS011;10535;50.664;4.564;2023-06-05T15:54:46;1.85;;;1.60;;
20749;SDS011;10535;50.664;4.564;2023-06-05T15:57:19;4.57;;;2.22;;
20749;SDS011;10535;50.664;4.564;2023-06-05T15:59:45;2.28;;;1.98;;
20749;SDS011;10535;50.664;4.564;2023-06-05T16:02:28;3.00;;;1.67;;
20749;SDS011;10535;50.664;4.564;2023-06-05T16:07:41;3.80;;;2.22;;
20749;SDS011;10535;50.664;4.564;2023-06-05T16:10:27;3.72;;;1.75;;
20749;SDS011;10535;50.664;4.564;2023-06-05T16:13:12;2.78;;;2.13;;
20749;SDS011;10535;50.664;4.564;2023-06-05T16:16:28;2.63;;;1.85;;
20749;SDS011;10535;50.664;4.564;2023-06-05T16:18:56;2.90;;;1.98;;
20749;SDS011;10535;50.664;4.564;2023-06-05T16:21:24;2.88;;;1.60;;